sensor_id;sensor_type;location;lat;lon;timestamp;P1;durP1;ratioP1;P2;durP2;ratioP2
47481;SDS011;33219;47.410;9.730;2024-03-02T00:00:50;6.53;;;3.25;;
47481;SDS011;33219;47.410;9.730;2024-03-02T00:03:19;7.15;;;3.83;;
47481;SDS011;33219;47.410;9.730;2024-03-02T00:05:50;6.83;;;3.80;;
47481;SDS011;33219;47.410;9.730;2024-03-02T00:08:21;5.05;;;3.65;;
47481;SDS011;33219;47.410;9.730;2024-03-02T00:10:52;4.25;;;2.20;;
47481;SDS011;33219;47.410;9.730;2024-03-02T00:13:21;3.58;;;2.10;;
47481;SDS011;33219;47.410;9.730;2024-03-02T00:15:52;2.33;;;1.45;;
47481;SDS011;33219;47.410;9.730;2024-03-02T00:18:27;1.30;;;0.90;;
47481;SDS011;33219;47.410;9.730;2024-03-02T00:21:00;2.45;;;1.20;;
47481;SDS011;33219;47.410;9.730;2024-03-02T00:23:30;3.33;;;1.30;;
47481;SDS011;33219;47.410;9.730;2024-03-02T00:25:58;2.27;;;1.30;;
47481;SDS011;33219;47.410;9.730;2024-03-02T00:28:32;1.87;;;1.12;;
47481;SDS011;33219;47.410;9.730;2024-03-02T00:31:07;1.95;;;1.12;;
47481;SDS011;33219;47.410;9.730;2024-03-02T00:33:43;1.55;;;1.10;;
47481;SDS011;33219;47.410;9.730;2024-03-02T00:36:15;2.35;;;1.42;;
47481;SDS011;33219;47.410;9.730;2024-03-02T00:38:48;4.08;;;1.80;;
47481;SDS011;33219;47.410;9.730;2024-03-02T00:46:29;6.47;;;3.70;;
47481;SDS011;33219;47.410;9.730;2024-03-02T00:49:06;6.72;;;3.37;;
47481;SDS011;33219;47.410;9.730;2024-03-02T00:51:39;5.03;;;2.37;;
47481;SDS011;33219;47.410;9.730;2024-03-02T00:54:08;5.95;;;3.50;;
47481;SDS011;33219;47.410;9.730;2024-03-02T00:56:37;4.62;;;2.60;;
47481;SDS011;33219;47.410;9.730;2024-03-02T00:59:05;3.27;;;1.90;;
47481;SDS011;33219;47.410;9.730;2024-03-02T01:01:32;3.58;;;2.20;;
47481;SDS011;33219;47.410;9.730;2024-03-02T01:04:00;3.12;;;1.98;;
47481;SDS011;33219;47.410;9.730;2024-03-02T01:06:28;3.60;;;1.98;;
47481;SDS011;33219;47.410;9.730;2024-03-02T01:08:55;4.60;;;2.40;;
47481;SDS011;33219;47.410;9.730;2024-03-02T01:11:23;6.08;;;3.60;;
47481;SDS011;33219;47.410;9.730;2024-03-02T01:13:50;7.15;;;4.50;;
47481;SDS011;33219;47.410;9.730;2024-03-02T01:16:18;6.37;;;4.08;;
47481;SDS011;33219;47.410;9.730;2024-03-02T01:18:46;10.05;;;5.22;;
47481;SDS011;33219;47.410;9.730;2024-03-02T01:21:14;11.48;;;6.55;;
47481;SDS011;33219;47.410;9.730;2024-03-02T01:23:42;11.63;;;6.75;;
47481;SDS011;33219;47.410;9.730;2024-03-02T01:26:09;11.18;;;6.55;;
47481;SDS011;33219;47.410;9.730;2024-03-02T01:28:37;13.72;;;8.08;;
47481;SDS011;33219;47.410;9.730;2024-03-02T01:31:04;14.18;;;7.72;;
47481;SDS011;33219;47.410;9.730;2024-03-02T01:33:32;13.35;;;7.22;;
47481;SDS011;33219;47.410;9.730;2024-03-02T01:35:59;13.20;;;7.60;;
47481;SDS011;33219;47.410;9.730;2024-03-02T01:38:27;16.37;;;8.83;;
47481;SDS011;33219;47.410;9.730;2024-03-02T01:40:55;17.75;;;9.15;;
47481;SDS011;33219;47.410;9.730;2024-03-02T01:43:24;16.65;;;9.43;;
47481;SDS011;33219;47.410;9.730;2024-03-02T01:45:51;16.50;;;8.18;;
47481;SDS011;33219;47.410;9.730;2024-03-02T01:48:19;14.40;;;8.03;;
47481;SDS011;33219;47.410;9.730;2024-03-02T01:50:47;16.70;;;8.73;;
47481;SDS011;33219;47.410;9.730;2024-03-02T01:53:14;15.23;;;8.40;;
47481;SDS011;33219;47.410;9.730;2024-03-02T01:55:42;14.85;;;8.48;;
47481;SDS011;33219;47.410;9.730;2024-03-02T01:58:10;13.40;;;8.25;;
47481;SDS011;33219;47.410;9.730;2024-03-02T02:00:38;11.28;;;6.78;;
47481;SDS011;33219;47.410;9.730;2024-03-02T02:03:06;10.53;;;6.53;;
47481;SDS011;33219;47.410;9.730;2024-03-02T02:05:33;11.00;;;6.30;;
47481;SDS011;33219;47.410;9.730;2024-03-02T02:08:01;11.00;;;6.05;;
47481;SDS011;33219;47.410;9.730;2024-03-02T02:10:29;10.58;;;6.42;;
47481;SDS011;33219;47.410;9.730;2024-03-02T02:12:57;10.05;;;5.85;;
47481;SDS011;33219;47.410;9.730;2024-03-02T02:15:28;10.75;;;6.17;;
47481;SDS011;33219;47.410;9.730;2024-03-02T02:17:55;9.15;;;6.08;;
47481;SDS011;33219;47.410;9.730;2024-03-02T02:20:23;10.90;;;6.90;;
47481;SDS011;33219;47.410;9.730;2024-03-02T02:22:57;10.72;;;6.33;;
47481;SDS011;33219;47.410;9.730;2024-03-02T02:25:27;9.10;;;5.95;;
47481;SDS011;33219;47.410;9.730;2024-03-02T02:27:55;10.88;;;6.65;;
47481;SDS011;33219;47.410;9.730;2024-03-02T02:30:25;10.65;;;6.33;;
47481;SDS011;33219;47.410;9.730;2024-03-02T02:32:54;10.55;;;6.17;;
47481;SDS011;33219;47.410;9.730;2024-03-02T02:35:21;11.57;;;6.47;;
47481;SDS011;33219;47.410;9.730;2024-03-02T02:37:51;10.93;;;6.42;;
47481;SDS011;33219;47.410;9.730;2024-03-02T02:40:20;11.65;;;6.67;;
47481;SDS011;33219;47.410;9.730;2024-03-02T02:42:48;11.05;;;6.42;;
47481;SDS011;33219;47.410;9.730;2024-03-02T02:45:17;8.98;;;6.25;;
47481;SDS011;33219;47.410;9.730;2024-03-02T02:47:45;9.08;;;5.53;;
47481;SDS011;33219;47.410;9.730;2024-03-02T02:50:12;10.55;;;6.22;;
47481;SDS011;33219;47.410;9.730;2024-03-02T02:52:40;9.30;;;6.05;;
47481;SDS011;33219;47.410;9.730;2024-03-02T02:55:09;8.95;;;5.55;;
47481;SDS011;33219;47.410;9.730;2024-03-02T02:57:39;10.38;;;6.30;;
47481;SDS011;33219;47.410;9.730;2024-03-02T03:00:09;9.08;;;5.55;;
47481;SDS011;33219;47.410;9.730;2024-03-02T03:02:40;8.93;;;5.65;;
47481;SDS011;33219;47.410;9.730;2024-03-02T03:05:09;11.05;;;6.22;;
47481;SDS011;33219;47.410;9.730;2024-03-02T03:07:38;8.90;;;6.00;;
47481;SDS011;33219;47.410;9.730;2024-03-02T03:10:07;11.20;;;6.72;;
47481;SDS011;33219;47.410;9.730;2024-03-02T03:12:35;11.93;;;7.03;;
47481;SDS011;33219;47.410;9.730;2024-03-02T03:15:03;11.78;;;7.17;;
47481;SDS011;33219;47.410;9.730;2024-03-02T03:17:32;10.05;;;6.47;;
47481;SDS011;33219;47.410;9.730;2024-03-02T03:20:01;11.65;;;6.55;;
47481;SDS011;33219;47.410;9.730;2024-03-02T03:22:30;10.72;;;6.85;;
47481;SDS011;33219;47.410;9.730;2024-03-02T03:25:01;12.98;;;7.62;;
47481;SDS011;33219;47.410;9.730;2024-03-02T03:27:29;12.50;;;7.20;;
47481;SDS011;33219;47.410;9.730;2024-03-02T03:29:56;14.23;;;7.40;;
47481;SDS011;33219;47.410;9.730;2024-03-02T03:32:24;11.55;;;6.90;;
47481;SDS011;33219;47.410;9.730;2024-03-02T03:34:52;11.22;;;6.80;;
47481;SDS011;33219;47.410;9.730;2024-03-02T03:37:19;12.15;;;6.97;;
47481;SDS011;33219;47.410;9.730;2024-03-02T03:39:47;12.47;;;7.03;;
47481;SDS011;33219;47.410;9.730;2024-03-02T03:42:14;12.10;;;6.58;;
47481;SDS011;33219;47.410;9.730;2024-03-02T03:44:42;10.38;;;6.30;;
47481;SDS011;33219;47.410;9.730;2024-03-02T03:47:09;13.43;;;6.80;;
47481;SDS011;33219;47.410;9.730;2024-03-02T03:49:37;12.05;;;7.10;;
47481;SDS011;33219;47.410;9.730;2024-03-02T03:52:05;10.88;;;7.08;;
47481;SDS011;33219;47.410;9.730;2024-03-02T03:54:32;12.70;;;6.80;;
47481;SDS011;33219;47.410;9.730;2024-03-02T03:57:00;10.28;;;6.22;;
47481;SDS011;33219;47.410;9.730;2024-03-02T03:59:27;18.77;;;9.88;;
47481;SDS011;33219;47.410;9.730;2024-03-02T04:01:55;17.95;;;8.90;;
47481;SDS011;33219;47.410;9.730;2024-03-02T04:04:23;18.27;;;9.40;;
47481;SDS011;33219;47.410;9.730;2024-03-02T04:06:50;14.47;;;7.95;;
47481;SDS011;33219;47.410;9.730;2024-03-02T04:09:18;16.12;;;8.23;;
47481;SDS011;33219;47.410;9.730;2024-03-02T04:11:46;14.50;;;7.58;;
47481;SDS011;33219;47.410;9.730;2024-03-02T04:14:13;14.23;;;7.47;;
47481;SDS011;33219;47.410;9.730;2024-03-02T04:16:41;12.88;;;7.62;;
47481;SDS011;33219;47.410;9.730;2024-03-02T04:19:08;13.20;;;7.72;;
47481;SDS011;33219;47.410;9.730;2024-03-02T04:21:36;13.03;;;7.60;;
47481;SDS011;33219;47.410;9.730;2024-03-02T04:24:03;12.80;;;6.37;;
47481;SDS011;33219;47.410;9.730;2024-03-02T04:26:31;10.05;;;6.15;;
47481;SDS011;33219;47.410;9.730;2024-03-02T04:28:58;10.55;;;6.47;;
47481;SDS011;33219;47.410;9.730;2024-03-02T04:31:26;10.63;;;6.22;;
47481;SDS011;33219;47.410;9.730;2024-03-02T04:33:56;11.03;;;6.25;;
47481;SDS011;33219;47.410;9.730;2024-03-02T04:36:24;11.22;;;5.70;;
47481;SDS011;33219;47.410;9.730;2024-03-02T04:38:51;9.85;;;6.05;;
47481;SDS011;33219;47.410;9.730;2024-03-02T04:41:19;11.22;;;6.25;;
47481;SDS011;33219;47.410;9.730;2024-03-02T04:43:47;11.53;;;5.60;;
47481;SDS011;33219;47.410;9.730;2024-03-02T04:46:14;8.33;;;4.75;;
47481;SDS011;33219;47.410;9.730;2024-03-02T04:48:42;6.55;;;3.98;;
47481;SDS011;33219;47.410;9.730;2024-03-02T04:51:10;6.90;;;3.80;;
47481;SDS011;33219;47.410;9.730;2024-03-02T04:53:37;6.80;;;3.15;;
47481;SDS011;33219;47.410;9.730;2024-03-02T04:56:05;3.22;;;2.37;;
47481;SDS011;33219;47.410;9.730;2024-03-02T04:58:51;7.08;;;3.10;;
47481;SDS011;33219;47.410;9.730;2024-03-02T05:01:18;4.45;;;2.27;;
47481;SDS011;33219;47.410;9.730;2024-03-02T05:03:46;3.72;;;1.80;;
47481;SDS011;33219;47.410;9.730;2024-03-02T05:06:14;4.45;;;2.40;;
47481;SDS011;33219;47.410;9.730;2024-03-02T05:08:41;3.50;;;2.00;;
47481;SDS011;33219;47.410;9.730;2024-03-02T05:11:11;3.17;;;1.85;;
47481;SDS011;33219;47.410;9.730;2024-03-02T05:13:56;3.50;;;2.20;;
47481;SDS011;33219;47.410;9.730;2024-03-02T05:16:24;4.12;;;2.15;;
47481;SDS011;33219;47.410;9.730;2024-03-02T05:18:51;3.45;;;2.37;;
47481;SDS011;33219;47.410;9.730;2024-03-02T05:21:19;4.60;;;2.33;;
47481;SDS011;33219;47.410;9.730;2024-03-02T05:23:47;6.67;;;2.83;;
47481;SDS011;33219;47.410;9.730;2024-03-02T05:26:14;5.47;;;3.12;;
47481;SDS011;33219;47.410;9.730;2024-03-02T05:28:42;5.67;;;3.20;;
47481;SDS011;33219;47.410;9.730;2024-03-02T05:31:10;5.97;;;3.70;;
47481;SDS011;33219;47.410;9.730;2024-03-02T05:33:38;9.25;;;5.67;;
47481;SDS011;33219;47.410;9.730;2024-03-02T05:36:06;9.38;;;6.03;;
47481;SDS011;33219;47.410;9.730;2024-03-02T05:38:37;8.90;;;5.17;;
47481;SDS011;33219;47.410;9.730;2024-03-02T05:41:04;12.60;;;7.42;;
47481;SDS011;33219;47.410;9.730;2024-03-02T05:43:32;12.75;;;6.97;;
47481;SDS011;33219;47.410;9.730;2024-03-02T05:45:59;12.25;;;7.22;;
47481;SDS011;33219;47.410;9.730;2024-03-02T05:48:27;11.38;;;6.60;;
47481;SDS011;33219;47.410;9.730;2024-03-02T05:50:54;15.18;;;8.05;;
47481;SDS011;33219;47.410;9.730;2024-03-02T05:53:22;13.95;;;7.62;;
47481;SDS011;33219;47.410;9.730;2024-03-02T05:55:49;14.50;;;8.05;;
47481;SDS011;33219;47.410;9.730;2024-03-02T05:58:19;16.60;;;9.68;;
47481;SDS011;33219;47.410;9.730;2024-03-02T06:01:00;17.75;;;10.60;;
47481;SDS011;33219;47.410;9.730;2024-03-02T06:03:29;16.35;;;9.73;;
47481;SDS011;33219;47.410;9.730;2024-03-02T06:05:57;18.65;;;10.98;;
47481;SDS011;33219;47.410;9.730;2024-03-02T06:08:25;19.82;;;10.63;;
47481;SDS011;33219;47.410;9.730;2024-03-02T06:10:54;17.07;;;9.78;;
47481;SDS011;33219;47.410;9.730;2024-03-02T06:13:22;15.28;;;9.73;;
47481;SDS011;33219;47.410;9.730;2024-03-02T06:15:51;16.97;;;9.43;;
47481;SDS011;33219;47.410;9.730;2024-03-02T06:18:19;15.00;;;9.48;;
47481;SDS011;33219;47.410;9.730;2024-03-02T06:20:46;18.45;;;9.38;;
47481;SDS011;33219;47.410;9.730;2024-03-02T06:23:14;16.57;;;9.28;;
47481;SDS011;33219;47.410;9.730;2024-03-02T06:25:42;17.80;;;10.35;;
47481;SDS011;33219;47.410;9.730;2024-03-02T06:28:09;22.00;;;12.63;;
47481;SDS011;33219;47.410;9.730;2024-03-02T06:30:37;21.15;;;11.10;;
47481;SDS011;33219;47.410;9.730;2024-03-02T06:33:05;18.42;;;10.65;;
47481;SDS011;33219;47.410;9.730;2024-03-02T06:35:32;18.30;;;10.30;;
47481;SDS011;33219;47.410;9.730;2024-03-02T06:38:01;18.80;;;9.70;;
47481;SDS011;33219;47.410;9.730;2024-03-02T06:40:29;18.30;;;10.85;;
47481;SDS011;33219;47.410;9.730;2024-03-02T06:42:56;18.40;;;8.75;;
47481;SDS011;33219;47.410;9.730;2024-03-02T06:45:23;14.93;;;8.35;;
47481;SDS011;33219;47.410;9.730;2024-03-02T06:47:51;18.37;;;8.48;;
47481;SDS011;33219;47.410;9.730;2024-03-02T06:50:18;13.95;;;7.90;;
47481;SDS011;33219;47.410;9.730;2024-03-02T06:52:46;15.35;;;9.00;;
47481;SDS011;33219;47.410;9.730;2024-03-02T06:55:14;10.10;;;6.80;;
47481;SDS011;33219;47.410;9.730;2024-03-02T06:57:41;9.73;;;6.30;;
47481;SDS011;33219;47.410;9.730;2024-03-02T07:00:09;9.00;;;5.33;;
47481;SDS011;33219;47.410;9.730;2024-03-02T07:02:37;10.53;;;5.55;;
47481;SDS011;33219;47.410;9.730;2024-03-02T07:05:06;8.35;;;5.30;;
47481;SDS011;33219;47.410;9.730;2024-03-02T07:07:34;9.05;;;5.17;;
47481;SDS011;33219;47.410;9.730;2024-03-02T07:10:04;7.80;;;4.50;;
47481;SDS011;33219;47.410;9.730;2024-03-02T07:12:33;5.55;;;4.40;;
47481;SDS011;33219;47.410;9.730;2024-03-02T07:15:00;5.80;;;3.00;;
47481;SDS011;33219;47.410;9.730;2024-03-02T07:17:30;5.45;;;3.08;;
47481;SDS011;33219;47.410;9.730;2024-03-02T07:19:58;6.05;;;3.62;;
47481;SDS011;33219;47.410;9.730;2024-03-02T07:22:26;7.95;;;4.35;;
47481;SDS011;33219;47.410;9.730;2024-03-02T07:24:53;7.47;;;4.05;;
47481;SDS011;33219;47.410;9.730;2024-03-02T07:27:21;8.33;;;5.17;;
47481;SDS011;33219;47.410;9.730;2024-03-02T07:29:49;10.75;;;6.35;;
47481;SDS011;33219;47.410;9.730;2024-03-02T07:32:16;9.55;;;6.72;;
47481;SDS011;33219;47.410;9.730;2024-03-02T07:34:44;15.50;;;7.30;;
47481;SDS011;33219;47.410;9.730;2024-03-02T07:37:11;12.93;;;7.40;;
47481;SDS011;33219;47.410;9.730;2024-03-02T07:39:39;10.53;;;6.67;;
47481;SDS011;33219;47.410;9.730;2024-03-02T07:42:06;11.90;;;7.08;;
47481;SDS011;33219;47.410;9.730;2024-03-02T07:44:34;13.38;;;7.90;;
47481;SDS011;33219;47.410;9.730;2024-03-02T07:47:01;16.32;;;9.50;;
47481;SDS011;33219;47.410;9.730;2024-03-02T07:49:29;19.65;;;10.35;;
47481;SDS011;33219;47.410;9.730;2024-03-02T07:51:57;16.07;;;8.55;;
47481;SDS011;33219;47.410;9.730;2024-03-02T07:54:25;13.58;;;8.85;;
47481;SDS011;33219;47.410;9.730;2024-03-02T07:56:52;13.15;;;8.43;;
47481;SDS011;33219;47.410;9.730;2024-03-02T07:59:20;12.55;;;7.87;;
47481;SDS011;33219;47.410;9.730;2024-03-02T08:01:48;11.10;;;7.25;;
47481;SDS011;33219;47.410;9.730;2024-03-02T08:04:17;12.43;;;8.10;;
47481;SDS011;33219;47.410;9.730;2024-03-02T08:06:45;9.83;;;6.10;;
47481;SDS011;33219;47.410;9.730;2024-03-02T08:09:12;13.48;;;8.40;;
47481;SDS011;33219;47.410;9.730;2024-03-02T08:11:40;9.50;;;6.10;;
47481;SDS011;33219;47.410;9.730;2024-03-02T08:14:07;8.65;;;6.08;;
47481;SDS011;33219;47.410;9.730;2024-03-02T08:16:35;10.10;;;6.53;;
47481;SDS011;33219;47.410;9.730;2024-03-02T08:19:02;12.07;;;6.62;;
47481;SDS011;33219;47.410;9.730;2024-03-02T08:21:30;10.93;;;6.40;;
47481;SDS011;33219;47.410;9.730;2024-03-02T08:23:59;10.05;;;6.25;;
47481;SDS011;33219;47.410;9.730;2024-03-02T08:26:27;10.08;;;6.35;;
47481;SDS011;33219;47.410;9.730;2024-03-02T08:28:57;9.58;;;5.90;;
47481;SDS011;33219;47.410;9.730;2024-03-02T08:31:27;6.95;;;5.22;;
47481;SDS011;33219;47.410;9.730;2024-03-02T08:33:55;9.75;;;5.75;;
47481;SDS011;33219;47.410;9.730;2024-03-02T08:36:26;10.65;;;6.47;;
47481;SDS011;33219;47.410;9.730;2024-03-02T08:38:53;8.00;;;5.50;;
47481;SDS011;33219;47.410;9.730;2024-03-02T08:41:21;7.65;;;5.03;;
47481;SDS011;33219;47.410;9.730;2024-03-02T08:43:49;6.92;;;5.03;;
47481;SDS011;33219;47.410;9.730;2024-03-02T08:46:16;7.67;;;5.37;;
47481;SDS011;33219;47.410;9.730;2024-03-02T08:48:44;9.28;;;5.42;;
47481;SDS011;33219;47.410;9.730;2024-03-02T08:51:11;6.87;;;4.97;;
47481;SDS011;33219;47.410;9.730;2024-03-02T08:53:39;6.83;;;4.20;;
47481;SDS011;33219;47.410;9.730;2024-03-02T08:56:06;6.50;;;4.37;;
47481;SDS011;33219;47.410;9.730;2024-03-02T08:58:34;8.10;;;4.80;;
47481;SDS011;33219;47.410;9.730;2024-03-02T09:01:01;7.50;;;4.58;;
47481;SDS011;33219;47.410;9.730;2024-03-02T09:03:29;8.63;;;6.08;;
47481;SDS011;33219;47.410;9.730;2024-03-02T09:05:59;7.47;;;5.10;;
47481;SDS011;33219;47.410;9.730;2024-03-02T09:08:26;8.58;;;5.80;;
47481;SDS011;33219;47.410;9.730;2024-03-02T09:10:54;7.20;;;5.00;;
47481;SDS011;33219;47.410;9.730;2024-03-02T09:13:22;7.35;;;5.08;;
47481;SDS011;33219;47.410;9.730;2024-03-02T09:15:50;7.05;;;5.30;;
47481;SDS011;33219;47.410;9.730;2024-03-02T09:18:18;9.20;;;5.25;;
47481;SDS011;33219;47.410;9.730;2024-03-02T09:20:46;9.40;;;5.60;;
47481;SDS011;33219;47.410;9.730;2024-03-02T09:23:13;7.20;;;4.90;;
47481;SDS011;33219;47.410;9.730;2024-03-02T09:25:41;6.70;;;4.80;;
47481;SDS011;33219;47.410;9.730;2024-03-02T09:28:09;6.62;;;4.67;;
47481;SDS011;33219;47.410;9.730;2024-03-02T09:30:37;7.67;;;4.90;;
47481;SDS011;33219;47.410;9.730;2024-03-02T09:33:04;7.17;;;4.75;;
47481;SDS011;33219;47.410;9.730;2024-03-02T09:35:32;6.78;;;4.35;;
47481;SDS011;33219;47.410;9.730;2024-03-02T09:38:00;5.70;;;4.25;;
47481;SDS011;33219;47.410;9.730;2024-03-02T09:40:29;6.55;;;4.33;;
47481;SDS011;33219;47.410;9.730;2024-03-02T09:42:57;5.55;;;3.77;;
47481;SDS011;33219;47.410;9.730;2024-03-02T09:45:25;7.28;;;4.17;;
47481;SDS011;33219;47.410;9.730;2024-03-02T09:47:53;5.25;;;3.85;;
47481;SDS011;33219;47.410;9.730;2024-03-02T09:50:21;5.37;;;3.72;;
47481;SDS011;33219;47.410;9.730;2024-03-02T09:52:49;5.65;;;3.60;;
47481;SDS011;33219;47.410;9.730;2024-03-02T09:55:16;5.60;;;3.25;;
47481;SDS011;33219;47.410;9.730;2024-03-02T09:57:45;4.00;;;2.80;;
47481;SDS011;33219;47.410;9.730;2024-03-02T10:00:15;4.12;;;2.80;;
47481;SDS011;33219;47.410;9.730;2024-03-02T10:02:43;3.80;;;2.62;;
47481;SDS011;33219;47.410;9.730;2024-03-02T10:05:12;4.90;;;3.37;;
47481;SDS011;33219;47.410;9.730;2024-03-02T10:07:41;4.67;;;3.10;;
47481;SDS011;33219;47.410;9.730;2024-03-02T10:10:14;4.12;;;2.90;;
47481;SDS011;33219;47.410;9.730;2024-03-02T10:12:42;4.85;;;2.67;;
47481;SDS011;33219;47.410;9.730;2024-03-02T10:15:10;5.37;;;3.12;;
47481;SDS011;33219;47.410;9.730;2024-03-02T10:17:37;4.78;;;3.22;;
47481;SDS011;33219;47.410;9.730;2024-03-02T10:20:24;7.50;;;3.67;;
47481;SDS011;33219;47.410;9.730;2024-03-02T10:22:54;4.50;;;3.12;;
47481;SDS011;33219;47.410;9.730;2024-03-02T10:25:28;4.62;;;2.92;;
47481;SDS011;33219;47.410;9.730;2024-03-02T10:27:57;4.87;;;3.20;;
47481;SDS011;33219;47.410;9.730;2024-03-02T10:30:28;5.45;;;3.52;;
47481;SDS011;33219;47.410;9.730;2024-03-02T10:32:56;5.47;;;3.35;;
47481;SDS011;33219;47.410;9.730;2024-03-02T10:35:24;8.70;;;3.70;;
47481;SDS011;33219;47.410;9.730;2024-03-02T10:37:52;6.25;;;3.90;;
47481;SDS011;33219;47.410;9.730;2024-03-02T10:40:23;7.42;;;4.60;;
47481;SDS011;33219;47.410;9.730;2024-03-02T10:42:51;5.42;;;3.95;;
47481;SDS011;33219;47.410;9.730;2024-03-02T10:45:20;6.00;;;3.95;;
47481;SDS011;33219;47.410;9.730;2024-03-02T10:47:49;6.22;;;4.05;;
47481;SDS011;33219;47.410;9.730;2024-03-02T10:50:17;6.90;;;3.60;;
47481;SDS011;33219;47.410;9.730;2024-03-02T10:52:45;4.40;;;3.45;;
47481;SDS011;33219;47.410;9.730;2024-03-02T10:55:12;4.85;;;3.75;;
47481;SDS011;33219;47.410;9.730;2024-03-02T10:57:50;5.78;;;3.77;;
47481;SDS011;33219;47.410;9.730;2024-03-02T11:00:19;6.15;;;3.87;;
47481;SDS011;33219;47.410;9.730;2024-03-02T11:05:28;5.65;;;3.95;;
47481;SDS011;33219;47.410;9.730;2024-03-02T11:08:08;6.47;;;4.30;;
47481;SDS011;33219;47.410;9.730;2024-03-02T11:10:45;5.65;;;3.58;;
47481;SDS011;33219;47.410;9.730;2024-03-02T11:13:20;5.35;;;3.30;;
47481;SDS011;33219;47.410;9.730;2024-03-02T11:18:18;4.28;;;3.08;;
47481;SDS011;33219;47.410;9.730;2024-03-02T11:20:46;3.95;;;2.92;;
47481;SDS011;33219;47.410;9.730;2024-03-02T11:23:14;5.08;;;3.25;;
47481;SDS011;33219;47.410;9.730;2024-03-02T11:25:42;3.80;;;2.75;;
47481;SDS011;33219;47.410;9.730;2024-03-02T11:28:10;3.95;;;2.70;;
47481;SDS011;33219;47.410;9.730;2024-03-02T11:33:14;4.17;;;2.62;;
47481;SDS011;33219;47.410;9.730;2024-03-02T11:35:45;5.95;;;3.10;;
47481;SDS011;33219;47.410;9.730;2024-03-02T11:38:14;4.80;;;2.47;;
47481;SDS011;33219;47.410;9.730;2024-03-02T11:40:41;3.90;;;2.42;;
47481;SDS011;33219;47.410;9.730;2024-03-02T11:43:09;4.55;;;2.10;;
47481;SDS011;33219;47.410;9.730;2024-03-02T11:45:37;2.87;;;2.08;;
47481;SDS011;33219;47.410;9.730;2024-03-02T11:48:09;3.45;;;2.17;;
47481;SDS011;33219;47.410;9.730;2024-03-02T11:50:47;3.35;;;2.30;;
47481;SDS011;33219;47.410;9.730;2024-03-02T11:53:17;3.52;;;2.52;;
47481;SDS011;33219;47.410;9.730;2024-03-02T11:55:45;5.30;;;2.90;;
47481;SDS011;33219;47.410;9.730;2024-03-02T11:58:14;4.95;;;3.00;;
47481;SDS011;33219;47.410;9.730;2024-03-02T12:00:53;3.55;;;2.33;;
47481;SDS011;33219;47.410;9.730;2024-03-02T12:03:22;3.98;;;2.45;;
47481;SDS011;33219;47.410;9.730;2024-03-02T12:05:52;3.75;;;2.67;;
47481;SDS011;33219;47.410;9.730;2024-03-02T12:08:20;5.12;;;2.60;;
47481;SDS011;33219;47.410;9.730;2024-03-02T12:10:58;3.98;;;2.50;;
47481;SDS011;33219;47.410;9.730;2024-03-02T12:13:27;4.22;;;2.80;;
47481;SDS011;33219;47.410;9.730;2024-03-02T12:15:55;3.25;;;2.20;;
47481;SDS011;33219;47.410;9.730;2024-03-02T12:18:23;3.65;;;2.50;;
47481;SDS011;33219;47.410;9.730;2024-03-02T12:20:51;3.42;;;2.33;;
47481;SDS011;33219;47.410;9.730;2024-03-02T12:23:21;4.95;;;2.80;;
47481;SDS011;33219;47.410;9.730;2024-03-02T12:25:48;4.83;;;2.77;;
47481;SDS011;33219;47.410;9.730;2024-03-02T12:28:16;4.33;;;2.98;;
47481;SDS011;33219;47.410;9.730;2024-03-02T12:30:44;5.47;;;2.70;;
47481;SDS011;33219;47.410;9.730;2024-03-02T12:33:13;3.45;;;2.60;;
47481;SDS011;33219;47.410;9.730;2024-03-02T12:35:41;4.10;;;2.52;;
47481;SDS011;33219;47.410;9.730;2024-03-02T12:38:08;3.25;;;2.27;;
47481;SDS011;33219;47.410;9.730;2024-03-02T12:40:37;3.67;;;2.22;;
47481;SDS011;33219;47.410;9.730;2024-03-02T12:43:05;3.12;;;2.25;;
47481;SDS011;33219;47.410;9.730;2024-03-02T12:45:33;4.22;;;2.30;;
47481;SDS011;33219;47.410;9.730;2024-03-02T12:48:01;3.00;;;2.10;;
47481;SDS011;33219;47.410;9.730;2024-03-02T12:50:29;2.98;;;2.00;;
47481;SDS011;33219;47.410;9.730;2024-03-02T12:52:57;3.00;;;2.17;;
47481;SDS011;33219;47.410;9.730;2024-03-02T12:55:24;2.70;;;1.90;;
47481;SDS011;33219;47.410;9.730;2024-03-02T12:57:54;2.60;;;2.10;;
47481;SDS011;33219;47.410;9.730;2024-03-02T13:00:22;3.47;;;2.22;;
47481;SDS011;33219;47.410;9.730;2024-03-02T13:02:50;3.40;;;2.12;;
47481;SDS011;33219;47.410;9.730;2024-03-02T13:05:22;3.90;;;2.42;;
47481;SDS011;33219;47.410;9.730;2024-03-02T13:07:51;3.00;;;2.17;;
47481;SDS011;33219;47.410;9.730;2024-03-02T13:10:19;3.10;;;2.12;;
47481;SDS011;33219;47.410;9.730;2024-03-02T13:12:47;4.95;;;2.40;;
47481;SDS011;33219;47.410;9.730;2024-03-02T13:15:14;4.40;;;2.52;;
47481;SDS011;33219;47.410;9.730;2024-03-02T13:17:42;2.80;;;2.20;;
47481;SDS011;33219;47.410;9.730;2024-03-02T13:20:12;3.10;;;2.42;;
47481;SDS011;33219;47.410;9.730;2024-03-02T13:22:40;2.40;;;1.90;;
47481;SDS011;33219;47.410;9.730;2024-03-02T13:25:07;3.02;;;2.20;;
47481;SDS011;33219;47.410;9.730;2024-03-02T13:27:36;3.17;;;1.75;;
47481;SDS011;33219;47.410;9.730;2024-03-02T13:30:04;2.60;;;2.08;;
47481;SDS011;33219;47.410;9.730;2024-03-02T13:32:34;2.72;;;1.70;;
47481;SDS011;33219;47.410;9.730;2024-03-02T13:35:01;2.80;;;2.00;;
47481;SDS011;33219;47.410;9.730;2024-03-02T13:37:29;3.10;;;1.90;;
47481;SDS011;33219;47.410;9.730;2024-03-02T13:39:56;3.95;;;1.80;;
47481;SDS011;33219;47.410;9.730;2024-03-02T13:42:24;2.50;;;1.60;;
47481;SDS011;33219;47.410;9.730;2024-03-02T13:44:53;3.12;;;1.98;;
47481;SDS011;33219;47.410;9.730;2024-03-02T13:47:20;2.98;;;1.87;;
47481;SDS011;33219;47.410;9.730;2024-03-02T13:49:48;4.62;;;1.72;;
47481;SDS011;33219;47.410;9.730;2024-03-02T13:52:16;2.52;;;1.60;;
47481;SDS011;33219;47.410;9.730;2024-03-02T13:54:44;4.03;;;1.75;;
47481;SDS011;33219;47.410;9.730;2024-03-02T13:57:13;3.42;;;1.90;;
47481;SDS011;33219;47.410;9.730;2024-03-02T13:59:41;3.22;;;2.08;;
47481;SDS011;33219;47.410;9.730;2024-03-02T14:02:09;3.95;;;2.52;;
47481;SDS011;33219;47.410;9.730;2024-03-02T14:04:38;5.67;;;3.85;;
47481;SDS011;33219;47.410;9.730;2024-03-02T14:07:05;3.10;;;2.10;;
47481;SDS011;33219;47.410;9.730;2024-03-02T14:09:33;3.77;;;2.40;;
47481;SDS011;33219;47.410;9.730;2024-03-02T14:12:01;3.27;;;2.35;;
47481;SDS011;33219;47.410;9.730;2024-03-02T14:14:29;3.22;;;2.10;;
47481;SDS011;33219;47.410;9.730;2024-03-02T14:16:57;3.00;;;1.98;;
47481;SDS011;33219;47.410;9.730;2024-03-02T14:19:29;2.17;;;1.67;;
47481;SDS011;33219;47.410;9.730;2024-03-02T14:21:56;3.50;;;2.05;;
47481;SDS011;33219;47.410;9.730;2024-03-02T14:24:24;2.67;;;2.00;;
47481;SDS011;33219;47.410;9.730;2024-03-02T14:26:53;2.55;;;1.85;;
47481;SDS011;33219;47.410;9.730;2024-03-02T14:29:23;3.02;;;1.92;;
47481;SDS011;33219;47.410;9.730;2024-03-02T14:31:50;2.77;;;1.85;;
47481;SDS011;33219;47.410;9.730;2024-03-02T14:34:18;2.83;;;2.05;;
47481;SDS011;33219;47.410;9.730;2024-03-02T14:36:45;3.37;;;1.77;;
47481;SDS011;33219;47.410;9.730;2024-03-02T14:39:13;2.98;;;1.70;;
47481;SDS011;33219;47.410;9.730;2024-03-02T14:41:40;3.67;;;2.10;;
47481;SDS011;33219;47.410;9.730;2024-03-02T14:44:08;2.55;;;1.90;;
47481;SDS011;33219;47.410;9.730;2024-03-02T14:46:36;3.65;;;2.20;;
47481;SDS011;33219;47.410;9.730;2024-03-02T14:49:03;4.08;;;2.40;;
47481;SDS011;33219;47.410;9.730;2024-03-02T14:51:31;3.67;;;2.10;;
47481;SDS011;33219;47.410;9.730;2024-03-02T14:53:59;2.60;;;1.77;;
47481;SDS011;33219;47.410;9.730;2024-03-02T14:56:27;3.10;;;1.90;;
47481;SDS011;33219;47.410;9.730;2024-03-02T14:58:54;2.85;;;2.08;;
47481;SDS011;33219;47.410;9.730;2024-03-02T15:01:22;3.77;;;2.02;;
47481;SDS011;33219;47.410;9.730;2024-03-02T15:03:50;2.50;;;1.80;;